Lovell, Wyoming
Current Conditions -  °F | °C
As of 1:15 AM on Tuesday 21 Oct 2014 (Local Time) from KU68 Reporting Station
Clear Clear  
Wind Chill: 41°   Ceiling: Unl
Heat Index: 45°   Visibility: 10mi
Dew Point: 23°   Wind: 6mph
Humidity: 43%   Direction: 60°ENE
Pressure: 29.85"   Gusts: NA
Location:  44.84°N, 108.39°W
Report Text: KU68 210715Z AUTO 06005KT 10SM CLR 07/M05 A2985 RMK AO2 PWINO
Loading
Personal Weather Stations






























Interactive Weather Map
Tropical Storm Tracking
New forecast layout! Learn more

10-Day Weather Forecast

Advertisements
Track Severe Weather on mobile